Time,TemperatureF,DewpointF,PressureIn,WindDirection,WindDirectionDegrees,WindSpeedMPH,WindSpeedGustMPH,Humidity,HourlyPrecipIn,Conditions,Clouds,dailyrainin,SoftwareType,DateUTC
2013-01-15 00:00:00,41.1,36.6,30.27,NW,323,6.0,12.0,84,0.04,,---,0.06,VWS V14.01,2013-01-15 05:00:00,
2013-01-15 00:03:00,40.8,36.7,30.27,NW,318,4.0,6.0,85,0.04,,---,0.00,VWS V14.01,2013-01-15 05:03:00,
2013-01-15 00:04:00,40.7,36.5,30.27,NNW,334,3.0,6.0,85,0.04,,---,0.00,VWS V14.01,2013-01-15 05:04:00,
2013-01-15 00:09:00,40.5,36.9,30.27,NW,319,3.0,5.0,87,0.05,,---,0.01,VWS V14.01,2013-01-15 05:09:00,
2013-01-15 00:14:00,40.3,37.0,30.27,NW,320,4.0,6.0,88,0.05,,---,0.01,VWS V14.01,2013-01-15 05:14:00,
2013-01-15 00:19:00,40.2,36.9,30.27,NW,320,4.0,5.0,88,0.04,,---,0.01,VWS V14.01,2013-01-15 05:19:00,
2013-01-15 00:24:00,40.1,37.1,30.27,NW,322,4.0,5.0,89,0.04,,---,0.01,VWS V14.01,2013-01-15 05:24:00,
2013-01-15 00:29:00,40.0,37.0,30.26,NW,322,0.0,4.0,89,0.03,,---,0.01,VWS V14.01,2013-01-15 05:29:00,
2013-01-15 00:34:00,40.0,37.0,30.27,WNW,300,3.0,5.0,89,0.04,,---,0.02,VWS V14.01,2013-01-15 05:34:00,
2013-01-15 00:39:00,40.0,37.0,30.27,NNW,330,3.0,5.0,89,0.04,,---,0.02,VWS V14.01,2013-01-15 05:39:00,
2013-01-15 00:44:00,39.9,36.9,30.27,NW,314,5.0,7.0,89,0.03,,---,0.02,VWS V14.01,2013-01-15 05:44:00,
2013-01-15 00:49:00,40.0,36.7,30.28,NW,319,8.0,9.0,88,0.03,,---,0.02,VWS V14.01,2013-01-15 05:49:00,
2013-01-15 00:54:00,39.9,36.6,30.27,WNW,302,4.0,7.0,88,0.03,,---,0.02,VWS V14.01,2013-01-15 05:54:00,
2013-01-15 00:59:00,39.8,36.8,30.28,NNW,330,4.0,6.0,89,0.04,,---,0.03,VWS V14.01,2013-01-15 05:59:00,
2013-01-15 01:04:00,39.6,36.9,30.28,NW,326,5.0,9.0,90,0.03,,---,0.03,VWS V14.01,2013-01-15 06:04:00,
2013-01-15 01:09:00,39.5,36.8,30.28,NW,322,6.0,7.0,90,0.03,,---,0.04,VWS V14.01,2013-01-15 06:09:00,
2013-01-15 01:14:00,39.4,37.0,30.29,NW,323,2.0,7.0,91,0.03,,---,0.04,VWS V14.01,2013-01-15 06:14:00,
2013-01-15 01:19:00,39.3,36.9,30.29,NW,314,2.0,6.0,91,0.03,,---,0.04,VWS V14.01,2013-01-15 06:19:00,
2013-01-15 01:24:00,39.2,37.1,30.30,NW,318,3.0,10.0,92,0.04,,---,0.05,VWS V14.01,2013-01-15 06:24:00,
2013-01-15 01:29:00,39.1,36.7,30.29,NW,312,0.0,9.0,91,0.04,,---,0.05,VWS V14.01,2013-01-15 06:29:00,
2013-01-15 01:34:00,39.0,36.6,30.29,NW,318,1.0,6.0,91,0.04,,---,0.06,VWS V14.01,2013-01-15 06:34:00,
2013-01-15 01:39:00,38.9,36.5,30.29,NW,319,3.0,5.0,91,0.04,,---,0.06,VWS V14.01,2013-01-15 06:39:00,
2013-01-15 01:44:00,38.9,36.8,30.29,NW,319,0.0,2.0,92,0.05,,---,0.07,VWS V14.01,2013-01-15 06:44:00,
2013-01-15 01:49:00,38.8,36.7,30.29,NW,319,0.0,0.0,92,0.05,,---,0.07,VWS V14.01,2013-01-15 06:49:00,
2013-01-15 01:54:00,38.6,36.5,30.29,NW,319,0.0,1.0,92,0.06,,---,0.08,VWS V14.01,2013-01-15 06:54:00,
2013-01-15 01:59:00,38.6,36.8,30.29,NW,319,0.0,1.0,93,0.06,,---,0.08,VWS V14.01,2013-01-15 06:59:00,
2013-01-15 02:04:00,38.5,36.7,30.28,NW,319,0.0,2.0,93,0.06,,---,0.09,VWS V14.01,2013-01-15 07:04:00,
2013-01-15 02:09:00,38.4,36.8,30.28,NW,319,2.0,4.0,94,0.07,,---,0.10,VWS V14.01,2013-01-15 07:09:00,
2013-01-15 02:14:00,38.3,36.7,30.28,NW,319,1.0,4.0,94,0.06,,---,0.10,VWS V14.01,2013-01-15 07:14:00,
2013-01-15 02:19:00,38.2,36.6,30.27,NW,319,1.0,4.0,94,0.07,,---,0.11,VWS V14.01,2013-01-15 07:19:00,
2013-01-15 02:24:00,38.1,36.5,30.27,NW,326,0.0,4.0,94,0.06,,---,0.11,VWS V14.01,2013-01-15 07:24:00,
2013-01-15 02:29:00,38.0,36.4,30.27,NW,326,0.0,3.0,94,0.06,,---,0.11,VWS V14.01,2013-01-15 07:29:00,
2013-01-15 02:34:00,38.0,36.4,30.27,NW,326,1.0,4.0,94,0.06,,---,0.11,VWS V14.01,2013-01-15 07:34:00,
2013-01-15 02:39:00,38.0,36.7,30.28,NNW,327,1.0,5.0,95,0.05,,---,0.11,VWS V14.01,2013-01-15 07:39:00,
2013-01-15 02:44:00,38.0,36.4,30.28,NW,318,4.0,8.0,94,0.06,,---,0.12,VWS V14.01,2013-01-15 07:44:00,
2013-01-15 02:49:00,38.0,36.7,30.29,WNW,293,4.0,10.0,95,0.05,,---,0.12,VWS V14.01,2013-01-15 07:49:00,
2013-01-15 02:54:00,38.0,36.7,30.28,NNW,341,4.0,7.0,95,0.05,,---,0.12,VWS V14.01,2013-01-15 07:54:00,
2013-01-15 02:59:00,37.9,36.6,30.27,NW,318,5.0,7.0,95,0.04,,---,0.12,VWS V14.01,2013-01-15 07:59:00,
2013-01-15 03:04:00,37.8,36.5,30.26,NNW,331,4.0,6.0,95,0.05,,---,0.13,VWS V14.01,2013-01-15 08:04:00,
2013-01-15 03:09:00,37.7,36.4,30.25,NNW,331,3.0,3.0,95,0.04,,---,0.13,VWS V14.01,2013-01-15 08:09:00,
2013-01-15 03:14:00,37.7,36.4,30.24,ENE,72,1.0,4.0,95,0.03,,---,0.13,VWS V14.01,2013-01-15 08:14:00,
2013-01-15 03:19:00,37.6,36.3,30.22,ENE,72,0.0,4.0,95,0.03,,---,0.13,VWS V14.01,2013-01-15 08:19:00,
2013-01-15 03:24:00,37.6,36.3,30.27,North,357,0.0,4.0,95,0.03,,---,0.14,VWS V14.01,2013-01-15 08:24:00,
2013-01-15 03:29:00,37.5,36.2,30.27,North,357,1.0,3.0,95,0.04,,---,0.15,VWS V14.01,2013-01-15 08:29:00,
2013-01-15 03:34:00,37.5,36.2,30.26,North,356,2.0,5.0,95,0.05,,---,0.16,VWS V14.01,2013-01-15 08:34:00,
2013-01-15 03:39:00,37.5,36.2,30.26,North,356,0.0,3.0,95,0.05,,---,0.16,VWS V14.01,2013-01-15 08:39:00,
2013-01-15 03:44:00,37.5,36.2,30.30,NW,322,5.0,7.0,95,0.06,,---,0.17,VWS V14.01,2013-01-15 08:44:00,
2013-01-15 03:49:00,37.4,36.1,30.25,NNW,330,3.0,7.0,95,0.06,,---,0.18,VWS V14.01,2013-01-15 08:49:00,
2013-01-15 03:54:00,37.4,36.1,30.27,NW,324,2.0,6.0,95,0.06,,---,0.18,VWS V14.01,2013-01-15 08:54:00,
2013-01-15 03:59:00,37.3,36.0,30.28,NNW,338,6.0,9.0,95,0.06,,---,0.18,VWS V14.01,2013-01-15 08:59:00,
2013-01-15 04:04:00,37.2,35.9,30.28,NW,324,2.0,6.0,95,0.05,,---,0.18,VWS V14.01,2013-01-15 09:04:00,
2013-01-15 04:09:00,37.1,35.8,30.25,NNW,328,2.0,5.0,95,0.05,,---,0.18,VWS V14.01,2013-01-15 09:09:00,
2013-01-15 04:14:00,37.1,35.5,30.24,ENE,59,0.0,4.0,94,0.05,,---,0.18,VWS V14.01,2013-01-15 09:14:00,
2013-01-15 04:19:00,37.0,35.4,30.26,ENE,59,1.0,2.0,94,0.05,,---,0.18,VWS V14.01,2013-01-15 09:19:00,
2013-01-15 04:24:00,36.9,35.3,30.24,ENE,58,1.0,2.0,94,0.05,,---,0.18,VWS V14.01,2013-01-15 09:24:00,
2013-01-15 04:29:00,36.9,35.6,30.23,ENE,58,0.0,2.0,95,0.04,,---,0.18,VWS V14.01,2013-01-15 09:29:00,
2013-01-15 04:34:00,36.8,35.5,30.25,ENE,59,2.0,3.0,95,0.03,,---,0.18,VWS V14.01,2013-01-15 09:34:00,
2013-01-15 04:39:00,36.8,35.5,30.25,ENE,59,0.0,4.0,95,0.02,,---,0.18,VWS V14.01,2013-01-15 09:39:00,
2013-01-15 04:44:00,36.8,35.5,30.23,ENE,59,1.0,3.0,95,0.01,,---,0.18,VWS V14.01,2013-01-15 09:44:00,
2013-01-15 04:49:00,36.8,35.5,30.23,ENE,59,3.0,3.0,95,0.01,,---,0.18,VWS V14.01,2013-01-15 09:49:00,
2013-01-15 04:54:00,36.8,35.5,30.24,ENE,58,2.0,3.0,95,0.00,,---,0.18,VWS V14.01,2013-01-15 09:54:00,
2013-01-15 04:59:00,36.9,35.3,30.24,NE,53,3.0,5.0,94,0.00,,---,0.18,VWS V14.01,2013-01-15 09:59:00,
2013-01-15 05:04:00,36.9,35.3,30.24,NNE,24,3.0,4.0,94,0.00,,---,0.18,VWS V14.01,2013-01-15 10:04:00,
2013-01-15 05:09:00,36.9,35.3,30.24,NNE,29,3.0,7.0,94,0.00,,---,0.18,VWS V14.01,2013-01-15 10:09:00,
2013-01-15 05:14:00,36.9,35.3,30.24,NNE,29,3.0,5.0,94,0.00,,---,0.18,VWS V14.01,2013-01-15 10:14:00,
2013-01-15 05:19:00,36.9,35.3,30.24,NNE,29,2.0,5.0,94,0.00,,---,0.18,VWS V14.01,2013-01-15 10:19:00,
2013-01-15 05:24:00,36.9,35.3,30.24,NNE,29,1.0,5.0,94,0.00,,---,0.18,VWS V14.01,2013-01-15 10:24:00,
2013-01-15 05:29:00,36.9,35.3,30.24,NNE,24,4.0,5.0,94,0.00,,---,0.18,VWS V14.01,2013-01-15 10:29:00,
2013-01-15 05:34:00,36.9,35.3,30.24,NNW,345,0.0,5.0,94,0.00,,---,0.18,VWS V14.01,2013-01-15 10:34:00,
2013-01-15 05:39:00,36.9,35.3,30.24,NNW,345,0.0,4.0,94,0.00,,---,0.18,VWS V14.01,2013-01-15 10:39:00,
2013-01-15 05:44:00,36.8,35.2,30.24,NNW,345,0.0,3.0,94,0.00,,---,0.18,VWS V14.01,2013-01-15 10:44:00,
2013-01-15 05:49:00,36.7,35.1,30.24,NNW,345,1.0,2.0,94,0.00,,---,0.18,VWS V14.01,2013-01-15 10:49:00,
2013-01-15 05:54:00,36.7,34.9,30.24,North,2,0.0,3.0,93,0.00,,---,0.18,VWS V14.01,2013-01-15 10:54:00,
2013-01-15 05:59:00,36.7,34.9,30.25,North,2,1.0,3.0,93,0.00,,---,0.18,VWS V14.01,2013-01-15 10:59:00,
2013-01-15 06:04:00,36.6,34.8,30.25,North,2,0.0,1.0,93,0.00,,---,0.18,VWS V14.01,2013-01-15 11:04:00,
2013-01-15 06:09:00,36.7,35.1,30.26,North,2,1.0,2.0,94,0.00,,---,0.18,VWS V14.01,2013-01-15 11:09:00,
2013-01-15 06:14:00,36.7,34.9,30.25,North,2,0.0,1.0,93,0.00,,---,0.18,VWS V14.01,2013-01-15 11:14:00,
2013-01-15 06:19:00,36.7,35.1,30.25,North,2,0.0,2.0,94,0.00,,---,0.18,VWS V14.01,2013-01-15 11:19:00,
2013-01-15 06:24:00,36.8,35.2,30.26,North,2,0.0,3.0,94,0.00,,---,0.18,VWS V14.01,2013-01-15 11:24:00,
2013-01-15 06:29:00,36.8,35.2,30.26,North,2,0.0,1.0,94,0.00,,---,0.18,VWS V14.01,2013-01-15 11:29:00,
2013-01-15 06:34:00,36.8,35.2,30.26,North,2,0.0,2.0,94,0.00,,---,0.18,VWS V14.01,2013-01-15 11:34:00,
2013-01-15 06:39:00,36.8,35.2,30.26,North,2,1.0,2.0,94,0.00,,---,0.18,VWS V14.01,2013-01-15 11:39:00,
2013-01-15 06:44:00,36.8,35.2,30.25,North,2,0.0,4.0,94,0.00,,---,0.18,VWS V14.01,2013-01-15 11:44:00,
2013-01-15 06:50:00,36.8,35.2,30.26,North,2,0.0,2.0,94,0.00,,---,0.18,VWS V14.01,2013-01-15 11:50:00,
2013-01-15 06:55:00,36.8,35.0,30.27,North,2,1.0,4.0,93,0.00,,---,0.18,VWS V14.01,2013-01-15 11:55:00,
2013-01-15 07:00:00,36.8,35.0,30.28,North,2,1.0,3.0,93,0.00,,---,0.18,VWS V14.01,2013-01-15 12:00:00,
2013-01-15 07:05:00,36.8,35.0,30.28,North,2,1.0,3.0,93,0.00,,---,0.18,VWS V14.01,2013-01-15 12:05:00,
2013-01-15 07:10:00,36.8,35.0,30.29,North,2,2.0,5.0,93,0.00,,---,0.18,VWS V14.01,2013-01-15 12:10:00,
2013-01-15 07:15:00,36.9,34.8,30.29,North,2,3.0,4.0,92,0.00,,---,0.18,VWS V14.01,2013-01-15 12:15:00,
2013-01-15 07:20:00,36.9,34.8,30.29,North,2,1.0,5.0,92,0.00,,---,0.18,VWS V14.01,2013-01-15 12:20:00,
2013-01-15 07:25:00,37.0,34.6,30.29,NNW,338,3.0,6.0,91,0.00,,---,0.18,VWS V14.01,2013-01-15 12:25:00,
2013-01-15 07:30:00,37.0,34.9,30.30,NNW,334,0.0,5.0,92,0.00,,---,0.18,VWS V14.01,2013-01-15 12:30:00,
2013-01-15 07:35:00,37.1,35.0,30.30,NNW,334,2.0,6.0,92,0.00,,---,0.18,VWS V14.01,2013-01-15 12:35:00,
2013-01-15 07:40:00,37.1,35.0,30.30,NW,321,1.0,7.0,92,0.00,,---,0.18,VWS V14.01,2013-01-15 12:40:00,
2013-01-15 07:45:00,37.1,35.0,30.30,NW,321,0.0,4.0,92,0.00,,---,0.18,VWS V14.01,2013-01-15 12:45:00,
2013-01-15 07:50:00,37.1,35.0,30.30,NW,322,3.0,4.0,92,0.00,,---,0.18,VWS V14.01,2013-01-15 12:50:00,
2013-01-15 07:55:00,37.1,35.0,30.30,NNW,332,4.0,5.0,92,0.00,,---,0.18,VWS V14.01,2013-01-15 12:55:00,
2013-01-15 08:00:00,37.1,34.4,30.30,NW,322,2.0,6.0,90,0.00,,---,0.18,VWS V14.01,2013-01-15 13:00:00,
2013-01-15 08:05:00,37.1,34.4,30.31,NNW,328,3.0,6.0,90,0.00,,---,0.18,VWS V14.01,2013-01-15 13:05:00,
2013-01-15 08:10:00,37.1,34.4,30.31,NNW,328,4.0,6.0,90,0.00,,---,0.18,VWS V14.01,2013-01-15 13:10:00,
2013-01-15 08:15:00,37.1,34.4,30.31,NW,326,3.0,5.0,90,0.00,,---,0.18,VWS V14.01,2013-01-15 13:15:00,
2013-01-15 08:20:00,37.2,34.5,30.31,NW,321,4.0,9.0,90,0.00,,---,0.18,VWS V14.01,2013-01-15 13:20:00,
2013-01-15 08:25:00,37.2,34.5,30.31,NW,323,5.0,9.0,90,0.00,,---,0.18,VWS V14.01,2013-01-15 13:25:00,
2013-01-15 08:30:00,37.2,34.5,30.31,NW,323,5.0,5.0,90,0.00,,---,0.18,VWS V14.01,2013-01-15 13:30:00,
2013-01-15 08:35:00,37.3,34.6,30.31,NW,316,3.0,4.0,90,0.00,,---,0.18,VWS V14.01,2013-01-15 13:35:00,
2013-01-15 08:40:00,37.3,34.6,30.32,NNW,328,1.0,2.0,90,0.00,,---,0.18,VWS V14.01,2013-01-15 13:40:00,
2013-01-15 08:45:00,37.3,34.9,30.32,NNW,337,4.0,7.0,91,0.00,,---,0.18,VWS V14.01,2013-01-15 13:45:00,
2013-01-15 08:50:00,37.4,34.7,30.32,NNW,333,4.0,6.0,90,0.00,,---,0.18,VWS V14.01,2013-01-15 13:50:00,
2013-01-15 08:55:00,37.4,34.7,30.32,NNW,329,6.0,7.0,90,0.00,,---,0.18,VWS V14.01,2013-01-15 13:55:00,
2013-01-15 09:00:00,37.4,34.7,30.31,NNW,327,2.0,9.0,90,0.00,,---,0.18,VWS V14.01,2013-01-15 14:00:00,
2013-01-15 09:05:00,37.5,34.8,30.32,NNW,328,5.0,5.0,90,0.00,,---,0.18,VWS V14.01,2013-01-15 14:05:00,
2013-01-15 09:10:00,37.5,34.6,30.32,NNW,342,3.0,9.0,89,0.00,,---,0.18,VWS V14.01,2013-01-15 14:10:00,
2013-01-15 09:15:00,37.5,34.6,30.31,NNW,337,5.0,5.0,89,0.00,,---,0.18,VWS V14.01,2013-01-15 14:15:00,
2013-01-15 09:20:00,37.6,34.1,30.31,North,349,3.0,10.0,87,0.00,,---,0.18,VWS V14.01,2013-01-15 14:20:00,
2013-01-15 09:25:00,37.6,34.1,30.31,NNW,330,2.0,2.0,87,0.00,,---,0.18,VWS V14.01,2013-01-15 14:25:00,
2013-01-15 09:30:00,37.6,33.8,30.32,North,356,5.0,11.0,86,0.00,,---,0.18,VWS V14.01,2013-01-15 14:30:00,
2013-01-15 09:35:00,37.5,33.7,30.32,NNW,338,6.0,7.0,86,0.00,,---,0.18,VWS V14.01,2013-01-15 14:35:00,
2013-01-15 09:40:00,37.6,33.8,30.32,NNW,331,3.0,3.0,86,0.00,,---,0.18,VWS V14.01,2013-01-15 14:40:00,
2013-01-15 09:45:00,37.6,33.5,30.32,NW,326,6.0,11.0,85,0.00,,---,0.18,VWS V14.01,2013-01-15 14:45:00,
2013-01-15 09:50:00,37.6,33.2,30.32,NW,314,9.0,9.0,84,0.00,,---,0.18,VWS V14.01,2013-01-15 14:50:00,
2013-01-15 09:55:00,37.6,33.5,30.32,NNW,335,5.0,10.0,85,0.00,,---,0.18,VWS V14.01,2013-01-15 14:55:00,
2013-01-15 10:00:00,37.6,33.2,30.32,NNW,343,5.0,10.0,84,0.00,,---,0.18,VWS V14.01,2013-01-15 15:00:00,
2013-01-15 10:05:00,37.7,33.3,30.31,NNW,347,3.0,9.0,84,0.00,,---,0.18,VWS V14.01,2013-01-15 15:05:00,
2013-01-15 10:10:00,37.7,32.7,30.32,NNW,333,2.0,7.0,82,0.00,,---,0.18,VWS V14.01,2013-01-15 15:10:00,
2013-01-15 10:15:00,37.8,32.5,30.32,NNW,341,7.0,7.0,81,0.00,,---,0.18,VWS V14.01,2013-01-15 15:15:00,
2013-01-15 10:20:00,37.9,33.2,30.32,NNW,347,1.0,2.0,83,0.00,,---,0.18,VWS V14.01,2013-01-15 15:20:00,
2013-01-15 10:25:00,38.2,33.2,30.32,NNW,339,9.0,9.0,82,0.00,,---,0.18,VWS V14.01,2013-01-15 15:25:00,
2013-01-15 10:30:00,38.1,32.8,30.31,NNW,338,5.0,7.0,81,0.00,,---,0.18,VWS V14.01,2013-01-15 15:30:00,
2013-01-15 10:35:00,38.1,32.5,30.31,NW,315,3.0,3.0,80,0.00,,---,0.18,VWS V14.01,2013-01-15 15:35:00,
2013-01-15 10:40:00,38.2,32.3,30.31,NNW,332,4.0,5.0,79,0.00,,---,0.18,VWS V14.01,2013-01-15 15:40:00,
2013-01-15 10:45:00,38.3,33.0,30.31,NNW,330,2.0,3.0,81,0.00,,---,0.18,VWS V14.01,2013-01-15 15:45:00,
2013-01-15 10:50:00,38.4,33.1,30.31,NNW,337,5.0,8.0,81,0.00,,---,0.18,VWS V14.01,2013-01-15 15:50:00,
2013-01-15 10:55:00,38.4,32.8,30.31,NW,324,6.0,6.0,80,0.00,,---,0.18,VWS V14.01,2013-01-15 15:55:00,
2013-01-15 11:00:00,38.4,33.1,30.31,NNW,327,2.0,5.0,81,0.00,,---,0.18,VWS V14.01,2013-01-15 16:00:00,
2013-01-15 11:05:00,38.4,33.1,30.30,NW,311,3.0,5.0,81,0.00,,---,0.18,VWS V14.01,2013-01-15 16:05:00,
2013-01-15 11:10:00,38.5,33.5,30.31,NNW,332,4.0,6.0,82,0.00,,---,0.18,VWS V14.01,2013-01-15 16:10:00,
2013-01-15 11:15:00,38.7,33.7,30.30,NNW,337,4.0,6.0,82,0.00,,---,0.18,VWS V14.01,2013-01-15 16:15:00,
2013-01-15 11:20:00,38.7,33.7,30.30,NNW,335,3.0,5.0,82,0.00,,---,0.18,VWS V14.01,2013-01-15 16:20:00,
2013-01-15 11:25:00,38.8,33.8,30.29,NW,324,3.0,4.0,82,0.00,,---,0.18,VWS V14.01,2013-01-15 16:25:00,
2013-01-15 11:30:00,39.0,34.0,30.29,NW,319,1.0,3.0,82,0.00,,---,0.18,VWS V14.01,2013-01-15 16:30:00,
2013-01-15 11:35:00,39.1,33.8,30.29,NNW,328,4.0,5.0,81,0.00,,---,0.18,VWS V14.01,2013-01-15 16:35:00,
2013-01-15 11:40:00,39.3,34.0,30.28,NW,326,2.0,3.0,81,0.00,,---,0.18,VWS V14.01,2013-01-15 16:40:00,
2013-01-15 11:45:00,39.3,34.0,30.28,North,2,4.0,5.0,81,0.00,,---,0.18,VWS V14.01,2013-01-15 16:45:00,
2013-01-15 11:50:00,39.4,33.8,30.29,NNW,341,5.0,5.0,80,0.00,,---,0.18,VWS V14.01,2013-01-15 16:50:00,
2013-01-15 11:55:00,39.4,33.8,30.29,NNW,337,2.0,3.0,80,0.00,,---,0.18,VWS V14.01,2013-01-15 16:55:00,
2013-01-15 12:00:00,39.5,33.8,30.29,NNW,337,3.0,4.0,80,0.00,,---,0.18,VWS V14.01,2013-01-15 17:00:00,
2013-01-15 12:05:00,39.6,34.0,30.29,NNW,338,4.0,4.0,80,0.00,,---,0.18,VWS V14.01,2013-01-15 17:05:00,
2013-01-15 12:10:00,39.7,34.0,30.28,NNW,343,1.0,3.0,80,0.00,,---,0.18,VWS V14.01,2013-01-15 17:10:00,
2013-01-15 12:15:00,39.8,34.1,30.28,NNW,343,3.0,4.0,80,0.00,,---,0.18,VWS V14.01,2013-01-15 17:15:00,
2013-01-15 12:20:00,39.8,33.8,30.28,NNW,343,0.0,3.0,79,0.00,,---,0.18,VWS V14.01,2013-01-15 17:20:00,
2013-01-15 12:25:00,39.9,33.9,30.29,NNW,343,5.0,5.0,79,0.00,,---,0.18,VWS V14.01,2013-01-15 17:25:00,
2013-01-15 12:30:00,39.8,33.8,30.28,NNW,343,0.0,1.0,79,0.00,,---,0.18,VWS V14.01,2013-01-15 17:30:00,
2013-01-15 12:35:00,39.9,33.9,30.29,NNW,343,2.0,4.0,79,0.00,,---,0.18,VWS V14.01,2013-01-15 17:35:00,
2013-01-15 12:40:00,39.9,33.6,30.29,NNW,343,4.0,4.0,78,0.00,,---,0.18,VWS V14.01,2013-01-15 17:40:00,
2013-01-15 12:45:00,39.9,33.6,30.28,NNW,342,0.0,2.0,78,0.00,,---,0.18,VWS V14.01,2013-01-15 17:45:00,
2013-01-15 12:50:00,40.0,34.0,30.28,NNW,342,3.0,3.0,79,0.00,,---,0.18,VWS V14.01,2013-01-15 17:50:00,
2013-01-15 12:55:00,40.0,33.7,30.29,NNW,342,3.0,5.0,78,0.00,,---,0.18,VWS V14.01,2013-01-15 17:55:00,
2013-01-15 13:00:00,40.1,34.1,30.29,NNW,342,2.0,2.0,79,0.00,,---,0.18,VWS V14.01,2013-01-15 18:00:00,
2013-01-15 13:05:00,40.1,33.8,30.28,NNW,341,2.0,3.0,78,0.00,,---,0.18,VWS V14.01,2013-01-15 18:05:00,
2013-01-15 13:10:00,40.2,34.2,30.27,NNW,341,2.0,2.0,79,0.00,,---,0.18,VWS V14.01,2013-01-15 18:10:00,
2013-01-15 13:15:00,40.3,34.3,30.27,NNW,342,1.0,3.0,79,0.00,,---,0.18,VWS V14.01,2013-01-15 18:15:00,
2013-01-15 13:20:00,40.4,34.4,30.27,NNW,341,0.0,3.0,79,0.00,,---,0.18,VWS V14.01,2013-01-15 18:20:00,
2013-01-15 13:25:00,40.5,34.8,30.28,NNW,342,4.0,4.0,80,0.00,,---,0.18,VWS V14.01,2013-01-15 18:25:00,
2013-01-15 13:30:00,40.4,34.4,30.27,NNW,341,3.0,3.0,79,0.00,,---,0.18,VWS V14.01,2013-01-15 18:30:00,
2013-01-15 13:35:00,40.5,34.2,30.27,NNW,342,0.0,1.0,78,0.00,,---,0.18,VWS V14.01,2013-01-15 18:35:00,
2013-01-15 13:40:00,40.6,34.0,30.28,NNW,341,2.0,4.0,77,0.00,,---,0.18,VWS V14.01,2013-01-15 18:40:00,
2013-01-15 13:46:00,40.6,34.3,30.28,NNW,341,3.0,3.0,78,0.00,,---,0.18,VWS V14.01,2013-01-15 18:46:00,
2013-01-15 13:51:00,40.7,34.4,30.28,NNW,341,1.0,3.0,78,0.00,,---,0.18,VWS V14.01,2013-01-15 18:51:00,
2013-01-15 13:56:00,40.8,34.2,30.28,NNW,341,2.0,4.0,77,0.00,,---,0.18,VWS V14.01,2013-01-15 18:56:00,
2013-01-15 14:01:00,40.8,34.5,30.28,NNW,341,0.0,1.0,78,0.00,,---,0.18,VWS V14.01,2013-01-15 19:01:00,
2013-01-15 14:06:00,40.8,34.5,30.28,NNW,341,2.0,2.0,78,0.00,,---,0.18,VWS V14.01,2013-01-15 19:06:00,
2013-01-15 14:11:00,40.8,34.8,30.28,NNW,341,1.0,4.0,79,0.00,,---,0.18,VWS V14.01,2013-01-15 19:11:00,
2013-01-15 14:16:00,40.8,34.2,30.28,NNW,341,0.0,3.0,77,0.00,,---,0.18,VWS V14.01,2013-01-15 19:16:00,
2013-01-15 14:21:00,40.8,34.5,30.28,NNW,342,1.0,3.0,78,0.00,,---,0.18,VWS V14.01,2013-01-15 19:21:00,
2013-01-15 14:26:00,40.8,34.5,30.27,NNW,342,0.0,0.0,78,0.00,,---,0.18,VWS V14.01,2013-01-15 19:26:00,
2013-01-15 14:31:00,40.9,34.6,30.28,NNW,341,1.0,3.0,78,0.00,,---,0.18,VWS V14.01,2013-01-15 19:31:00,
2013-01-15 14:36:00,40.9,34.6,30.28,NNW,341,3.0,3.0,78,0.00,,---,0.18,VWS V14.01,2013-01-15 19:36:00,
2013-01-15 14:41:00,40.8,34.5,30.28,NNW,341,0.0,2.0,78,0.00,,---,0.18,VWS V14.01,2013-01-15 19:41:00,
2013-01-15 14:46:00,40.8,34.8,30.28,NNW,341,0.0,3.0,79,0.00,,---,0.18,VWS V14.01,2013-01-15 19:46:00,
2013-01-15 14:51:00,40.8,34.5,30.28,NNW,341,1.0,4.0,78,0.00,,---,0.18,VWS V14.01,2013-01-15 19:51:00,
2013-01-15 14:56:00,40.7,34.4,30.28,NNW,341,3.0,3.0,78,0.00,,---,0.18,VWS V14.01,2013-01-15 19:56:00,
2013-01-15 15:01:00,40.7,35.0,30.27,NNW,342,1.0,2.0,80,0.00,,---,0.18,VWS V14.01,2013-01-15 20:01:00,
2013-01-15 15:06:00,40.7,34.4,30.27,NNW,341,3.0,5.0,78,0.00,,---,0.18,VWS V14.01,2013-01-15 20:06:00,
2013-01-15 15:11:00,40.6,34.3,30.27,NNW,341,0.0,2.0,78,0.00,,---,0.18,VWS V14.01,2013-01-15 20:11:00,
2013-01-15 15:16:00,40.7,34.7,30.26,NNW,341,0.0,0.0,79,0.00,,---,0.18,VWS V14.01,2013-01-15 20:16:00,
2013-01-15 15:21:00,40.7,34.7,30.27,NNW,341,0.0,0.0,79,0.00,,---,0.18,VWS V14.01,2013-01-15 20:21:00,
2013-01-15 15:26:00,40.6,34.6,30.26,NNW,341,0.0,0.0,79,0.00,,---,0.18,VWS V14.01,2013-01-15 20:26:00,
2013-01-15 15:31:00,40.6,34.3,30.26,NNW,341,0.0,0.0,78,0.00,,---,0.18,VWS V14.01,2013-01-15 20:31:00,
2013-01-15 15:36:00,40.6,34.6,30.27,NNW,341,0.0,0.0,79,0.00,,---,0.18,VWS V14.01,2013-01-15 20:36:00,
2013-01-15 15:41:00,40.6,34.6,30.27,NNW,341,0.0,0.0,79,0.00,,---,0.18,VWS V14.01,2013-01-15 20:41:00,
2013-01-15 15:46:00,40.5,34.8,30.27,NNW,341,3.0,3.0,80,0.00,,---,0.18,VWS V14.01,2013-01-15 20:46:00,
2013-01-15 15:51:00,40.4,34.7,30.27,NNW,341,2.0,2.0,80,0.00,,---,0.18,VWS V14.01,2013-01-15 20:51:00,
2013-01-15 15:56:00,40.3,34.3,30.27,NNW,341,0.0,2.0,79,0.00,,---,0.18,VWS V14.01,2013-01-15 20:56:00,
2013-01-15 16:01:00,40.3,34.3,30.28,NNW,341,2.0,3.0,79,0.00,,---,0.18,VWS V14.01,2013-01-15 21:01:00,
2013-01-15 16:06:00,40.2,34.2,30.27,NNW,341,1.0,1.0,79,0.00,,---,0.18,VWS V14.01,2013-01-15 21:06:00,
2013-01-15 16:11:00,40.1,34.8,30.26,NNW,341,0.0,0.0,81,0.00,,---,0.18,VWS V14.01,2013-01-15 21:11:00,
2013-01-15 16:16:00,40.0,35.0,30.26,NNW,341,0.0,0.0,82,0.00,,---,0.18,VWS V14.01,2013-01-15 21:16:00,
2013-01-15 16:21:00,39.8,34.5,30.26,NNW,341,0.0,0.0,81,0.00,,---,0.18,VWS V14.01,2013-01-15 21:21:00,
2013-01-15 16:26:00,39.7,34.7,30.25,NNW,341,0.0,0.0,82,0.00,,---,0.18,VWS V14.01,2013-01-15 21:26:00,
2013-01-15 16:31:00,39.6,34.6,30.26,NNW,342,0.0,0.0,82,0.00,,---,0.18,VWS V14.01,2013-01-15 21:31:00,
2013-01-15 16:36:00,39.5,34.2,30.26,NNW,341,0.0,0.0,81,0.00,,---,0.18,VWS V14.01,2013-01-15 21:36:00,
2013-01-15 16:41:00,39.3,34.3,30.27,NNW,341,0.0,0.0,82,0.00,,---,0.18,VWS V14.01,2013-01-15 21:41:00,
2013-01-15 16:46:00,39.2,34.2,30.27,NNW,341,0.0,0.0,82,0.00,,---,0.18,VWS V14.01,2013-01-15 21:46:00,
2013-01-15 16:51:00,39.1,34.4,30.28,NNW,341,0.0,0.0,83,0.00,,---,0.18,VWS V14.01,2013-01-15 21:51:00,
2013-01-15 16:56:00,39.2,33.9,30.28,NNW,341,0.0,0.0,81,0.00,,---,0.18,VWS V14.01,2013-01-15 21:56:00,
2013-01-15 17:01:00,39.2,33.9,30.28,NNW,341,0.0,0.0,81,0.00,,---,0.18,VWS V14.01,2013-01-15 22:01:00,
2013-01-15 17:06:00,39.2,33.9,30.28,NNW,341,0.0,0.0,81,0.00,,---,0.18,VWS V14.01,2013-01-15 22:06:00,
2013-01-15 17:11:00,39.2,34.2,30.29,NNW,341,0.0,2.0,82,0.00,,---,0.18,VWS V14.01,2013-01-15 22:11:00,
2013-01-15 17:16:00,39.2,34.5,30.29,NNW,341,0.0,0.0,83,0.00,,---,0.18,VWS V14.01,2013-01-15 22:16:00,
2013-01-15 17:21:00,39.2,34.2,30.28,NNW,341,0.0,3.0,82,0.00,,---,0.18,VWS V14.01,2013-01-15 22:21:00,
2013-01-15 17:26:00,39.2,34.2,30.28,NNW,341,1.0,3.0,82,0.00,,---,0.18,VWS V14.01,2013-01-15 22:26:00,
2013-01-15 17:31:00,39.1,34.1,30.28,NNW,341,0.0,2.0,82,0.00,,---,0.18,VWS V14.01,2013-01-15 22:31:00,
2013-01-15 17:36:00,39.1,34.1,30.28,NNW,341,0.0,2.0,82,0.00,,---,0.18,VWS V14.01,2013-01-15 22:36:00,
2013-01-15 17:41:00,39.0,34.6,30.29,NNW,341,2.0,3.0,84,0.00,,---,0.18,VWS V14.01,2013-01-15 22:41:00,
2013-01-15 17:46:00,39.0,34.3,30.29,NNW,341,0.0,4.0,83,0.00,,---,0.18,VWS V14.01,2013-01-15 22:46:00,
2013-01-15 17:51:00,39.0,34.0,30.29,NNW,341,0.0,3.0,82,0.00,,---,0.18,VWS V14.01,2013-01-15 22:51:00,
2013-01-15 17:56:00,39.0,34.3,30.28,NNW,341,0.0,1.0,83,0.00,,---,0.18,VWS V14.01,2013-01-15 22:56:00,
2013-01-15 18:01:00,38.9,34.2,30.28,NNW,341,0.0,0.0,83,0.00,,---,0.18,VWS V14.01,2013-01-15 23:01:00,
2013-01-15 18:06:00,38.8,34.4,30.28,NNW,341,1.0,1.0,84,0.00,,---,0.18,VWS V14.01,2013-01-15 23:06:00,
2013-01-15 18:11:00,38.7,35.7,30.29,NNW,341,0.0,3.0,89,0.00,,---,0.18,VWS V14.01,2013-01-15 23:11:00,
2013-01-15 18:16:00,38.7,34.6,30.29,NNW,342,0.0,0.0,85,0.00,,---,0.18,VWS V14.01,2013-01-15 23:16:00,
2013-01-15 18:21:00,38.6,34.5,30.29,NNW,341,1.0,2.0,85,0.00,,---,0.18,VWS V14.01,2013-01-15 23:21:00,
2013-01-15 18:26:00,38.6,34.5,30.29,NNW,341,0.0,2.0,85,0.00,,---,0.18,VWS V14.01,2013-01-15 23:26:00,
2013-01-15 18:31:00,38.5,34.1,30.28,NNW,341,0.0,0.0,84,0.00,,---,0.18,VWS V14.01,2013-01-15 23:31:00,
2013-01-15 18:36:00,38.4,34.0,30.29,NNW,341,0.0,1.0,84,0.00,,---,0.18,VWS V14.01,2013-01-15 23:36:00,
2013-01-15 18:41:00,38.4,34.0,30.29,NNW,341,0.0,0.0,84,0.00,,---,0.18,VWS V14.01,2013-01-15 23:41:00,
2013-01-15 18:46:00,38.3,33.9,30.29,NNW,341,0.0,0.0,84,0.00,,---,0.18,VWS V14.01,2013-01-15 23:46:00,
2013-01-15 18:51:00,38.2,33.5,30.28,NNW,341,0.0,0.0,83,0.00,,---,0.18,VWS V14.01,2013-01-15 23:51:00,
2013-01-15 18:56:00,38.0,33.3,30.28,NNW,341,0.0,1.0,83,0.00,,---,0.18,VWS V14.01,2013-01-15 23:56:00,
2013-01-15 19:01:00,37.9,33.5,30.29,NNW,341,0.0,0.0,84,0.00,,---,0.18,VWS V14.01,2013-01-16 00:01:00,
2013-01-15 19:06:00,37.8,33.4,30.29,NNW,342,0.0,0.0,84,0.00,,---,0.18,VWS V14.01,2013-01-16 00:06:00,
2013-01-15 19:11:00,37.7,33.6,30.30,NNW,341,0.0,0.0,85,0.00,,---,0.18,VWS V14.01,2013-01-16 00:11:00,
2013-01-15 19:16:00,37.5,33.4,30.28,NNW,341,0.0,1.0,85,0.00,,---,0.18,VWS V14.01,2013-01-16 00:16:00,
2013-01-15 19:21:00,37.4,33.3,30.29,NNW,341,0.0,0.0,85,0.00,,---,0.18,VWS V14.01,2013-01-16 00:21:00,
2013-01-15 19:26:00,37.3,33.5,30.29,NNW,341,1.0,1.0,86,0.00,,---,0.18,VWS V14.01,2013-01-16 00:26:00,
2013-01-15 19:31:00,37.3,33.5,30.28,NNW,341,1.0,2.0,86,0.00,,---,0.18,VWS V14.01,2013-01-16 00:31:00,
2013-01-15 19:36:00,37.3,33.8,30.27,NNW,341,1.0,3.0,87,0.00,,---,0.18,VWS V14.01,2013-01-16 00:36:00,
2013-01-15 19:41:00,37.4,33.6,30.27,NNW,341,0.0,3.0,86,0.00,,---,0.18,VWS V14.01,2013-01-16 00:41:00,
2013-01-15 19:46:00,37.4,33.6,30.27,NNW,341,0.0,2.0,86,0.00,,---,0.18,VWS V14.01,2013-01-16 00:46:00,
2013-01-15 19:51:00,37.3,33.5,30.27,NNW,341,0.0,4.0,86,0.00,,---,0.18,VWS V14.01,2013-01-16 00:51:00,
2013-01-15 19:56:00,37.3,33.5,30.27,NNW,341,2.0,4.0,86,0.00,,---,0.18,VWS V14.01,2013-01-16 00:56:00,
2013-01-15 20:01:00,37.3,33.5,30.28,NNW,341,2.0,4.0,86,0.00,,---,0.18,VWS V14.01,2013-01-16 01:01:00,
2013-01-15 20:06:00,37.6,32.9,30.28,NNW,337,4.0,6.0,83,0.00,,---,0.18,VWS V14.01,2013-01-16 01:06:00,
2013-01-15 20:11:00,37.8,32.8,30.28,NNW,346,1.0,4.0,82,0.00,,---,0.18,VWS V14.01,2013-01-16 01:11:00,
2013-01-15 20:16:00,37.9,32.9,30.27,North,351,1.0,3.0,82,0.00,,---,0.18,VWS V14.01,2013-01-16 01:16:00,
2013-01-15 20:22:00,38.0,32.7,30.28,NNW,328,2.0,4.0,81,0.00,,---,0.18,VWS V14.01,2013-01-16 01:22:00,
2013-01-15 20:27:00,38.1,33.1,30.29,NNW,328,3.0,3.0,82,0.00,,---,0.18,VWS V14.01,2013-01-16 01:27:00,
2013-01-15 20:32:00,38.2,33.2,30.28,NNW,328,0.0,3.0,82,0.00,,---,0.18,VWS V14.01,2013-01-16 01:32:00,
2013-01-15 20:37:00,38.1,32.8,30.27,NNW,328,1.0,3.0,81,0.00,,---,0.18,VWS V14.01,2013-01-16 01:37:00,
2013-01-15 20:41:00,38.1,32.8,30.28,NNW,328,2.0,4.0,81,0.00,,---,0.18,VWS V14.01,2013-01-16 01:41:00,
2013-01-15 20:46:00,38.1,32.8,30.28,NNW,327,2.0,3.0,81,0.00,,---,0.18,VWS V14.01,2013-01-16 01:46:00,
2013-01-15 20:51:00,38.0,32.7,30.28,NNW,328,2.0,3.0,81,0.00,,---,0.18,VWS V14.01,2013-01-16 01:51:00,
2013-01-15 20:56:00,38.0,32.7,30.27,NNW,328,2.0,3.0,81,0.00,,---,0.18,VWS V14.01,2013-01-16 01:56:00,
2013-01-15 21:01:00,37.9,32.6,30.28,NNW,328,1.0,3.0,81,0.00,,---,0.18,VWS V14.01,2013-01-16 02:01:00,
2013-01-15 21:07:00,38.0,32.7,30.27,NNW,328,4.0,4.0,81,0.00,,---,0.18,VWS V14.01,2013-01-16 02:07:00,
2013-01-15 21:12:00,38.0,33.0,30.27,NNW,328,0.0,2.0,82,0.00,,---,0.18,VWS V14.01,2013-01-16 02:12:00,
2013-01-15 21:17:00,38.0,32.7,30.27,NNW,328,0.0,1.0,81,0.00,,---,0.18,VWS V14.01,2013-01-16 02:17:00,
2013-01-15 21:22:00,37.9,32.3,30.28,NNW,328,0.0,2.0,80,0.00,,---,0.18,VWS V14.01,2013-01-16 02:22:00,
2013-01-15 21:27:00,37.9,32.6,30.27,NNW,327,0.0,0.0,81,0.00,,---,0.18,VWS V14.01,2013-01-16 02:27:00,
2013-01-15 21:32:00,37.9,32.6,30.27,NNW,328,0.0,0.0,81,0.00,,---,0.18,VWS V14.01,2013-01-16 02:32:00,
2013-01-15 21:37:00,37.8,32.5,30.27,NNW,328,0.0,0.0,81,0.00,,---,0.18,VWS V14.01,2013-01-16 02:37:00,
2013-01-15 21:42:00,37.8,32.2,30.27,NNW,328,0.0,0.0,80,0.00,,---,0.18,VWS V14.01,2013-01-16 02:42:00,
2013-01-15 21:47:00,37.7,31.8,30.27,NNW,328,0.0,1.0,79,0.00,,---,0.18,VWS V14.01,2013-01-16 02:47:00,
2013-01-15 21:52:00,37.7,32.4,30.27,NNW,328,0.0,1.0,81,0.00,,---,0.18,VWS V14.01,2013-01-16 02:52:00,
2013-01-15 21:57:00,37.6,32.3,30.27,NNW,328,0.0,2.0,81,0.00,,---,0.18,VWS V14.01,2013-01-16 02:57:00,
2013-01-15 22:02:00,37.5,32.2,30.27,NNW,328,1.0,3.0,81,0.00,,---,0.18,VWS V14.01,2013-01-16 03:02:00,
2013-01-15 22:07:00,37.5,32.2,30.27,NNW,328,1.0,2.0,81,0.00,,---,0.18,VWS V14.01,2013-01-16 03:07:00,
2013-01-15 22:12:00,37.5,32.2,30.27,NNW,327,0.0,0.0,81,0.00,,---,0.18,VWS V14.01,2013-01-16 03:12:00,
2013-01-15 22:17:00,37.5,32.5,30.27,NNW,328,0.0,2.0,82,0.00,,---,0.18,VWS V14.01,2013-01-16 03:17:00,
2013-01-15 22:22:00,37.5,32.2,30.27,NNW,328,0.0,3.0,81,0.00,,---,0.18,VWS V14.01,2013-01-16 03:22:00,
2013-01-15 22:27:00,37.5,31.9,30.27,NNW,328,0.0,3.0,80,0.00,,---,0.18,VWS V14.01,2013-01-16 03:27:00,
2013-01-15 22:32:00,37.5,32.5,30.28,NNW,328,2.0,2.0,82,0.00,,---,0.18,VWS V14.01,2013-01-16 03:32:00,
2013-01-15 22:37:00,37.5,31.6,30.28,NNW,328,0.0,2.0,79,0.00,,---,0.18,VWS V14.01,2013-01-16 03:37:00,
2013-01-15 22:42:00,37.5,31.6,30.28,NNW,327,0.0,2.0,79,0.00,,---,0.18,VWS V14.01,2013-01-16 03:42:00,
2013-01-15 22:47:00,37.5,31.6,30.28,NNW,328,0.0,0.0,79,0.00,,---,0.18,VWS V14.01,2013-01-16 03:47:00,
2013-01-15 22:52:00,37.5,31.3,30.27,NNW,328,0.0,1.0,78,0.00,,---,0.18,VWS V14.01,2013-01-16 03:52:00,
2013-01-15 22:57:00,37.5,31.3,30.27,NNW,328,0.0,0.0,78,0.00,,---,0.18,VWS V14.01,2013-01-16 03:57:00,
2013-01-15 23:02:00,37.4,31.5,30.26,NNW,328,1.0,2.0,79,0.00,,---,0.18,VWS V14.01,2013-01-16 04:02:00,
2013-01-15 23:07:00,37.4,31.8,30.25,NNW,328,0.0,2.0,80,0.00,,---,0.18,VWS V14.01,2013-01-16 04:07:00,
2013-01-15 23:12:00,37.3,31.7,30.26,NNW,328,0.0,2.0,80,0.00,,---,0.18,VWS V14.01,2013-01-16 04:12:00,
2013-01-15 23:17:00,37.3,31.7,30.26,NNW,328,2.0,2.0,80,0.00,,---,0.18,VWS V14.01,2013-01-16 04:17:00,
2013-01-15 23:22:00,37.3,31.7,30.26,NNW,328,1.0,2.0,80,0.00,,---,0.18,VWS V14.01,2013-01-16 04:22:00,
2013-01-15 23:27:00,37.3,31.7,30.26,NNW,328,1.0,2.0,80,0.00,,---,0.18,VWS V14.01,2013-01-16 04:27:00,
2013-01-15 23:32:00,37.3,31.7,30.25,NNW,328,0.0,4.0,80,0.00,,---,0.18,VWS V14.01,2013-01-16 04:32:00,
2013-01-15 23:37:00,37.3,31.7,30.24,NNW,328,1.0,3.0,80,0.00,,---,0.18,VWS V14.01,2013-01-16 04:37:00,
2013-01-15 23:42:00,37.3,32.0,30.24,NNE,19,4.0,4.0,81,0.00,,---,0.18,VWS V14.01,2013-01-16 04:42:00,
2013-01-15 23:47:00,37.3,31.7,30.25,NNE,19,2.0,3.0,80,0.00,,---,0.18,VWS V14.01,2013-01-16 04:47:00,
2013-01-15 23:52:00,37.3,31.7,30.24,NNE,19,0.0,2.0,80,0.00,,---,0.18,VWS V14.01,2013-01-16 04:52:00,
2013-01-15 23:57:00,37.3,32.0,30.25,NNE,19,0.0,3.0,81,0.00,,---,0.18,VWS V14.01,2013-01-16 04:57:00,